Picton Castle — E5WP — position and weather

sailwx.info

Track history (hours):
 
Tides and Currents Weather Stations Pressure Air Temp Water Temp Dewpoint Dewpoint Depression Visibility Wind Speed Wind Dir Waves Ship Positions

Picton Castle (Cook Islands)

Ship's website: http://www.picton-castle.com/

Last reported at 2015-Jul-13 13:31 UTC. Time now 2015-Jul-31 13:22 UTC.
Position N 41°44' W 069°44'.
Warning: this ship's position is 17 days out of date.

Length 37 m; draft 4.4 m.

Type: Sailing vessel. MMSI: 518000019.

Date/timePositionNaut miles runAvg speedWind from/ knotsBaromVisibWave heightAir tempDewpointWater temp
2015-Jul-13 13:31N 41°44' W 069°44'3 2.7
2015-Jul-13 12:32N 41°41' W 069°42'4 3.9
2015-Jul-13 11:33N 41°38' W 069°39'10 4.8
2015-Jul-13 09:26N 41°29' W 069°32'6 5.4
2015-Jul-13 08:16N 41°24' W 069°29'3 4.8
2015-Jul-13 07:33N 41°20' W 069°27'9 4.1
2015-Jul-13 05:27N 41°13' W 069°22'3 2.8
2015-Jul-13 04:33N 41°10' W 069°21'2 2.3
2015-Jul-13 03:32N 41°08' W 069°20'3 3.0
2015-Jul-13 02:24N 41°07' W 069°16'7 3.6
2015-Jul-13 00:32N 41°01' W 069°10'23 4.5
2015-Jul-12 19:23N 40°42' W 069°26'3 3.7
2015-Jul-12 18:33N 40°41' W 069°30'17 4.3
2015-Jul-12 14:29N 40°43' W 069°53'5 5.2
2015-Jul-12 13:33N 40°43' W 069°59'5 4.0
2015-Jul-12 12:13N 40°46' W 070°05'3 3.9
2015-Jul-12 11:33N 40°47' W 070°08'4 3.6
2015-Jul-12 10:33N 40°49' W 070°12'3 3.1
2015-Jul-12 09:33N 40°51' W 070°15'3 3.5
2015-Jul-12 08:34N 40°53' W 070°19'2 2.4
2015-Jul-12 07:33N 40°54' W 070°22'38 2.8
2015-Jul-11 18:14N 41°20' W 070°58'3 4.5
2015-Jul-11 17:34N 41°22' W 071°00'  
2015-Jul-09 07:15N 41°18' W 071°19'3 3.9
2015-Jul-09 06:31N 41°18' W 071°22'4 4.2
2015-Jul-09 05:31N 41°17' W 071°28'5 4.8
2015-Jul-09 04:33N 41°16' W 071°34'4 3.7
2015-Jul-09 03:33N 41°15' W 071°39'1 1.4
2015-Jul-09 02:33N 41°15' W 071°40'4 3.8
2015-Jul-09 01:33N 41°14' W 071°45'5 4.8
2015-Jul-09 00:33N 41°13' W 071°51'4 4.5
2015-Jul-08 23:33N 41°12' W 071°57'2 2.3
2015-Jul-08 22:33N 41°11' W 072°00'1 0.7
2015-Jul-08 21:33N 41°11' W 072°01'1 1.1
2015-Jul-08 20:33N 41°11' W 072°02'3 2.7
2015-Jul-08 19:33N 41°10' W 072°06'1 1.4
2015-Jul-08 18:33N 41°09' W 072°08'2 2.1
2015-Jul-08 17:33N 41°09' W 072°10'4 3.7
2015-Jul-08 16:33N 41°07' W 072°14'4 3.6
2015-Jul-08 15:33N 41°07' W 072°19'2 1.5
2015-Jul-08 14:28N 41°06' W 072°21'0 0.0
2015-Jul-08 13:31N 41°06' W 072°21'0 0.0
2015-Jul-08 12:31N 41°06' W 072°21'0 0.4
2015-Jul-08 11:33N 41°06' W 072°21'0 0.1
2015-Jul-08 10:32N 41°06' W 072°22'0 0.0
2015-Jul-08 09:32N 41°06' W 072°22'0 0.0
2015-Jul-08 08:32N 41°06' W 072°22'0 0.0
2015-Jul-08 07:32N 41°06' W 072°22'0 0.0
2015-Jul-08 06:32N 41°06' W 072°22'0 0.0
2015-Jul-08 05:32N 41°06' W 072°22'0 0.0
2015-Jul-08 04:29N 41°06' W 072°22'0 0.0
2015-Jul-08 03:26N 41°06' W 072°22'0 0.0
2015-Jul-08 02:32N 41°06' W 072°22'0 0.0
2015-Jul-08 01:32N 41°06' W 072°22'0 0.0
2015-Jul-08 00:32N 41°06' W 072°22'0 0.0
2015-Jul-07 23:32N 41°06' W 072°22'0 0.0
2015-Jul-07 22:32N 41°06' W 072°22'0 0.0
2015-Jul-07 21:29N 41°06' W 072°22'0 0.0
2015-Jul-07 20:32N 41°06' W 072°22'0 0.0
2015-Jul-07 19:32N 41°06' W 072°22'0 0.0
2015-Jul-07 18:32N 41°06' W 072°22'0 0.0
2015-Jul-07 17:33N 41°06' W 072°22'0 0.0
2015-Jul-07 16:33N 41°06' W 072°22'0 0.0
2015-Jul-07 15:33N 41°06' W 072°22'0 0.0
2015-Jul-07 14:33N 41°06' W 072°22'0 0.0
2015-Jul-07 13:33N 41°06' W 072°22'0 0.0
2015-Jul-07 12:33N 41°06' W 072°22'0 0.0
2015-Jul-07 11:33N 41°06' W 072°22'0 0.0
2015-Jul-07 10:30N 41°06' W 072°22'0 0.0
2015-Jul-07 09:33N 41°06' W 072°22'0 0.0
2015-Jul-07 08:30N 41°06' W 072°22'0 0.0
2015-Jul-07 07:33N 41°06' W 072°22'0 0.0
2015-Jul-07 06:33N 41°06' W 072°22'0 0.0
2015-Jul-07 05:33N 41°06' W 072°22'0 0.0
2015-Jul-07 04:33N 41°06' W 072°22'0 0.0
2015-Jul-07 03:30N 41°06' W 072°22'0 0.0
2015-Jul-07 02:33N 41°06' W 072°22'0 0.0
2015-Jul-07 01:33N 41°06' W 072°22'0 0.0
2015-Jul-07 00:30N 41°06' W 072°22'0 0.0
2015-Jul-06 23:33N 41°06' W 072°22'0 0.0
2015-Jul-06 22:33N 41°06' W 072°22'0 0.0
2015-Jul-06 21:30N 41°06' W 072°22'0 0.0
2015-Jul-06 20:33N 41°06' W 072°22'0 0.0
2015-Jul-06 19:33N 41°06' W 072°22'0 0.0
2015-Jul-06 18:33N 41°06' W 072°22'0 0.0
2015-Jul-06 17:33N 41°06' W 072°22'0 0.0
2015-Jul-06 16:33N 41°06' W 072°22'0 0.0
2015-Jul-06 15:33N 41°06' W 072°22'0 0.0
2015-Jul-06 14:33N 41°06' W 072°22'0 0.0
2015-Jul-06 13:33N 41°06' W 072°22'  
2015-Jul-04 06:23N 41°06' W 072°22'0 0.0
2015-Jul-04 05:32N 41°06' W 072°22'0 0.0
2015-Jul-04 04:29N 41°06' W 072°22'0 0.0
2015-Jul-04 03:32N 41°06' W 072°22'0 0.0
2015-Jul-04 02:32N 41°06' W 072°22'0 0.0
2015-Jul-04 01:32N 41°06' W 072°22'0 0.0
2015-Jul-04 00:32N 41°06' W 072°22'0 0.0
2015-Jul-03 23:32N 41°06' W 072°22'0 0.0
2015-Jul-03 22:32N 41°06' W 072°22'0 0.0
2015-Jul-03 21:32N 41°06' W 072°22'0 0.0
2015-Jul-03 20:32N 41°06' W 072°22'0 0.0
2015-Jul-03 19:29N 41°06' W 072°22'0 0.0
2015-Jul-03 18:32N 41°06' W 072°22'0 0.0
2015-Jul-03 17:32N 41°06' W 072°22'0 0.0
2015-Jul-03 16:32N 41°06' W 072°22'0 0.0
2015-Jul-03 15:32N 41°06' W 072°22'0 0.0
2015-Jul-03 14:32N 41°06' W 072°22'0 0.0
2015-Jul-03 13:32N 41°06' W 072°22'  
Track history (hours):
 
Tides and Currents Weather Stations Pressure Air Temp Water Temp Dewpoint Dewpoint Depression Visibility Wind Speed Wind Dir Waves Ship Positions

Picton Castle (Cook Islands)

Ship's website: http://www.picton-castle.com/

Last reported at 2015-Jul-13 13:31 UTC. Time now 2015-Jul-31 13:22 UTC.
Position N 41°44' W 069°44'.
Warning: this ship's position is 17 days out of date.

Length 37 m; draft 4.4 m.

Type: Sailing vessel. MMSI: 518000019.

Date/timePositionNaut miles runAvg speedWind from/ knotsBaromVisibWave heightAir tempDewpointWater temp
2015-Jul-13 13:31N 41°44' W 069°44'3 2.7
2015-Jul-13 12:32N 41°41' W 069°42'4 3.9
2015-Jul-13 11:33N 41°38' W 069°39'10 4.8
2015-Jul-13 09:26N 41°29' W 069°32'6 5.4
2015-Jul-13 08:16N 41°24' W 069°29'3 4.8
2015-Jul-13 07:33N 41°20' W 069°27'9 4.1
2015-Jul-13 05:27N 41°13' W 069°22'3 2.8
2015-Jul-13 04:33N 41°10' W 069°21'2 2.3
2015-Jul-13 03:32N 41°08' W 069°20'3 3.0
2015-Jul-13 02:24N 41°07' W 069°16'7 3.6
2015-Jul-13 00:32N 41°01' W 069°10'23 4.5
2015-Jul-12 19:23N 40°42' W 069°26'3 3.7
2015-Jul-12 18:33N 40°41' W 069°30'17 4.3
2015-Jul-12 14:29N 40°43' W 069°53'5 5.2
2015-Jul-12 13:33N 40°43' W 069°59'5 4.0
2015-Jul-12 12:13N 40°46' W 070°05'3 3.9
2015-Jul-12 11:33N 40°47' W 070°08'4 3.6
2015-Jul-12 10:33N 40°49' W 070°12'3 3.1
2015-Jul-12 09:33N 40°51' W 070°15'3 3.5
2015-Jul-12 08:34N 40°53' W 070°19'2 2.4
2015-Jul-12 07:33N 40°54' W 070°22'38 2.8
2015-Jul-11 18:14N 41°20' W 070°58'3 4.5
2015-Jul-11 17:34N 41°22' W 071°00'  
2015-Jul-09 07:15N 41°18' W 071°19'3 3.9
2015-Jul-09 06:31N 41°18' W 071°22'4 4.2
2015-Jul-09 05:31N 41°17' W 071°28'5 4.8
2015-Jul-09 04:33N 41°16' W 071°34'4 3.7
2015-Jul-09 03:33N 41°15' W 071°39'1 1.4
2015-Jul-09 02:33N 41°15' W 071°40'4 3.8
2015-Jul-09 01:33N 41°14' W 071°45'5 4.8
2015-Jul-09 00:33N 41°13' W 071°51'4 4.5
2015-Jul-08 23:33N 41°12' W 071°57'2 2.3
2015-Jul-08 22:33N 41°11' W 072°00'1 0.7
2015-Jul-08 21:33N 41°11' W 072°01'1 1.1
2015-Jul-08 20:33N 41°11' W 072°02'3 2.7
2015-Jul-08 19:33N 41°10' W 072°06'1 1.4
2015-Jul-08 18:33N 41°09' W 072°08'2 2.1
2015-Jul-08 17:33N 41°09' W 072°10'4 3.7
2015-Jul-08 16:33N 41°07' W 072°14'4 3.6
2015-Jul-08 15:33N 41°07' W 072°19'2 1.5
2015-Jul-08 14:28N 41°06' W 072°21'0 0.0
2015-Jul-08 13:31N 41°06' W 072°21'0 0.0
2015-Jul-08 12:31N 41°06' W 072°21'0 0.4
2015-Jul-08 11:33N 41°06' W 072°21'0 0.1
2015-Jul-08 10:32N 41°06' W 072°22'0 0.0
2015-Jul-08 09:32N 41°06' W 072°22'0 0.0
2015-Jul-08 08:32N 41°06' W 072°22'0 0.0
2015-Jul-08 07:32N 41°06' W 072°22'0 0.0
2015-Jul-08 06:32N 41°06' W 072°22'0 0.0
2015-Jul-08 05:32N 41°06' W 072°22'0 0.0
2015-Jul-08 04:29N 41°06' W 072°22'0 0.0
2015-Jul-08 03:26N 41°06' W 072°22'0 0.0
2015-Jul-08 02:32N 41°06' W 072°22'0 0.0
2015-Jul-08 01:32N 41°06' W 072°22'0 0.0
2015-Jul-08 00:32N 41°06' W 072°22'0 0.0
2015-Jul-07 23:32N 41°06' W 072°22'0 0.0
2015-Jul-07 22:32N 41°06' W 072°22'0 0.0
2015-Jul-07 21:29N 41°06' W 072°22'0 0.0
2015-Jul-07 20:32N 41°06' W 072°22'0 0.0
2015-Jul-07 19:32N 41°06' W 072°22'0 0.0
2015-Jul-07 18:32N 41°06' W 072°22'0 0.0
2015-Jul-07 17:33N 41°06' W 072°22'0 0.0
2015-Jul-07 16:33N 41°06' W 072°22'0 0.0
2015-Jul-07 15:33N 41°06' W 072°22'0 0.0
2015-Jul-07 14:33N 41°06' W 072°22'0 0.0
2015-Jul-07 13:33N 41°06' W 072°22'0 0.0
2015-Jul-07 12:33N 41°06' W 072°22'0 0.0
2015-Jul-07 11:33N 41°06' W 072°22'0 0.0
2015-Jul-07 10:30N 41°06' W 072°22'0 0.0
2015-Jul-07 09:33N 41°06' W 072°22'0 0.0
2015-Jul-07 08:30N 41°06' W 072°22'0 0.0
2015-Jul-07 07:33N 41°06' W 072°22'0 0.0
2015-Jul-07 06:33N 41°06' W 072°22'0 0.0
2015-Jul-07 05:33N 41°06' W 072°22'0 0.0
2015-Jul-07 04:33N 41°06' W 072°22'0 0.0
2015-Jul-07 03:30N 41°06' W 072°22'0 0.0
2015-Jul-07 02:33N 41°06' W 072°22'0 0.0
2015-Jul-07 01:33N 41°06' W 072°22'0 0.0
2015-Jul-07 00:30N 41°06' W 072°22'0 0.0
2015-Jul-06 23:33N 41°06' W 072°22'0 0.0
2015-Jul-06 22:33N 41°06' W 072°22'0 0.0
2015-Jul-06 21:30N 41°06' W 072°22'0 0.0
2015-Jul-06 20:33N 41°06' W 072°22'0 0.0
2015-Jul-06 19:33N 41°06' W 072°22'0 0.0
2015-Jul-06 18:33N 41°06' W 072°22'0 0.0
2015-Jul-06 17:33N 41°06' W 072°22'0 0.0
2015-Jul-06 16:33N 41°06' W 072°22'0 0.0
2015-Jul-06 15:33N 41°06' W 072°22'0 0.0
2015-Jul-06 14:33N 41°06' W 072°22'0 0.0
2015-Jul-06 13:33N 41°06' W 072°22'  
2015-Jul-04 06:23N 41°06' W 072°22'0 0.0
2015-Jul-04 05:32N 41°06' W 072°22'0 0.0
2015-Jul-04 04:29N 41°06' W 072°22'0 0.0
2015-Jul-04 03:32N 41°06' W 072°22'0 0.0
2015-Jul-04 02:32N 41°06' W 072°22'0 0.0
2015-Jul-04 01:32N 41°06' W 072°22'0 0.0
2015-Jul-04 00:32N 41°06' W 072°22'0 0.0
2015-Jul-03 23:32N 41°06' W 072°22'0 0.0
2015-Jul-03 22:32N 41°06' W 072°22'0 0.0
2015-Jul-03 21:32N 41°06' W 072°22'0 0.0
2015-Jul-03 20:32N 41°06' W 072°22'0 0.0
2015-Jul-03 19:29N 41°06' W 072°22'0 0.0
2015-Jul-03 18:32N 41°06' W 072°22'0 0.0
2015-Jul-03 17:32N 41°06' W 072°22'0 0.0
2015-Jul-03 16:32N 41°06' W 072°22'0 0.0
2015-Jul-03 15:32N 41°06' W 072°22'0 0.0
2015-Jul-03 14:32N 41°06' W 072°22'0 0.0
2015-Jul-03 13:32N 41°06' W 072°22'  

Dump ship's entire track history